ADDS METAR Data INFO
IDs: Format: Raw Decoded Include TAF

Data at: 0936 UTC 20 Nov 2017

METAR for:KLCK (Rickenbacker AFB, OH, US)
Text:KLCK 200915Z AUTO 20007KT 10SM CLR M04/M05 A3016 RMK AO2 T10371046
Temperature: -3.7°C ( 25°F)
Dewpoint: -4.6°C ( 24°F) [RH = 93%]
Pressure (altimeter):30.16 inches Hg (1021.4 mb)
Winds:from the SSW (200 degrees) at 8 MPH (7 knots; 3.6 m/s)
Visibility:10 or more sm (16+ km)
Ceiling:at least 12,000 feet AGL
Clouds:sky clear below 12,000 feet AGL
QC Flag:automated observation with no human augmentation